createdAt,value
2018-04-25T00:01:30.436Z,13.86
2018-04-25T00:03:57.962Z,13.94
2018-04-25T00:06:25.769Z,13.75
2018-04-25T00:08:53.287Z,13.89
2018-04-25T00:11:20.804Z,13.89
2018-04-25T00:13:48.375Z,13.87
2018-04-25T00:16:15.897Z,13.99
2018-04-25T00:18:43.412Z,13.78
2018-04-25T00:21:11.265Z,13.82
2018-04-25T00:23:38.785Z,13.81
2018-04-25T00:26:06.316Z,13.87
2018-04-25T00:28:33.992Z,13.85
2018-04-25T00:31:01.508Z,14.02
2018-04-25T00:33:29.277Z,13.76
2018-04-25T00:35:57.064Z,13.74
2018-04-25T00:38:24.585Z,13.55
2018-04-25T00:40:52.109Z,13.66
2018-04-25T00:43:20.045Z,13.68
2018-04-25T00:45:47.589Z,13.55
2018-04-25T00:48:15.112Z,13.73
2018-04-25T00:50:42.904Z,13.38
2018-04-25T00:53:10.430Z,13.55
2018-04-25T00:55:37.956Z,13.46
2018-04-25T00:58:05.596Z,13.65
2018-04-25T01:00:33.116Z,13.53
2018-04-25T01:03:00.677Z,13.57
2018-04-25T01:05:28.386Z,13.53
2018-04-25T01:07:55.905Z,13.66
2018-04-25T01:10:23.425Z,13.61
2018-04-25T01:12:50.985Z,13.57
2018-04-25T01:15:18.505Z,13.38
2018-04-25T01:17:46.029Z,13.62
2018-04-25T01:20:13.652Z,13.80
2018-04-25T01:22:41.183Z,13.72
2018-04-25T01:25:23.465Z,13.74
2018-04-25T01:31:09.938Z,13.46
2018-04-25T01:33:38.360Z,13.73
2018-04-25T01:36:06.773Z,13.81
2018-04-25T01:38:34.456Z,13.76
2018-04-25T01:41:09.793Z,13.89
2018-04-25T01:43:39.284Z,13.82
2018-04-25T01:46:12.732Z,13.47
2018-04-25T01:51:50.398Z,13.84
2018-04-25T01:54:29.817Z,13.80
2018-04-25T01:57:09.232Z,13.41
2018-04-25T01:59:48.940Z,13.43
2018-04-25T02:02:15.928Z,13.72
2018-04-25T02:04:43.439Z,13.80
2018-04-25T02:07:11.404Z,13.94
2018-04-25T02:09:38.921Z,13.82
2018-04-25T02:12:06.453Z,14.00
2018-04-25T02:14:34.008Z,14.11
2018-04-25T02:17:01.536Z,14.22
2018-04-25T02:19:29.056Z,14.38
2018-04-25T02:21:56.620Z,14.35
2018-04-25T02:24:24.149Z,14.32
2018-04-25T02:26:51.672Z,14.41
2018-04-25T02:29:19.548Z,14.30
2018-04-25T02:31:47.532Z,14.37
2018-04-25T02:34:15.052Z,14.31
2018-04-25T02:36:42.612Z,14.18
2018-04-25T02:39:11.114Z,14.07
2018-04-25T02:41:38.638Z,14.25
2018-04-25T02:44:06.184Z,14.25
2018-04-25T02:46:33.713Z,14.20
2018-04-25T02:49:01.238Z,14.16
2018-04-25T02:51:28.794Z,14.07
2018-04-25T02:53:56.314Z,14.13
2018-04-25T02:56:23.847Z,14.06
2018-04-25T02:58:51.495Z,13.92
2018-04-25T03:01:18.976Z,13.85
2018-04-25T03:03:46.496Z,14.12
2018-04-25T03:06:14.267Z,14.17
2018-04-25T03:08:42.741Z,13.99
2018-04-25T03:11:10.257Z,14.23
2018-04-25T03:13:37.888Z,14.02
2018-04-25T03:16:05.407Z,14.12
2018-04-25T03:18:32.956Z,14.06
2018-04-25T03:21:00.670Z,13.99
2018-04-25T03:23:28.190Z,14.05
2018-04-25T03:25:55.705Z,14.09
2018-04-25T03:28:23.421Z,14.21
2018-04-25T03:30:50.945Z,14.23
2018-04-25T03:33:18.974Z,14.21
2018-04-25T03:35:46.715Z,14.23
2018-04-25T03:38:14.695Z,14.53
2018-04-25T03:40:42.220Z,14.68
2018-04-25T03:43:10.008Z,14.75
2018-04-25T03:45:37.528Z,14.70
2018-04-25T03:48:05.075Z,14.63
2018-04-25T03:50:32.816Z,14.64
2018-04-25T03:53:00.363Z,14.45
2018-04-25T03:55:27.893Z,14.42
2018-04-25T03:57:56.000Z,14.37
2018-04-25T04:00:23.517Z,14.32
2018-04-25T04:02:51.051Z,14.43
2018-04-25T04:05:18.849Z,14.21
2018-04-25T04:07:47.491Z,14.23
2018-04-25T04:10:15.022Z,14.41
2018-04-25T04:12:42.875Z,14.38
2018-04-25T04:15:10.392Z,14.40
2018-04-25T04:17:37.925Z,14.39
2018-04-25T04:20:05.652Z,14.51
2018-04-25T04:22:33.176Z,14.49
2018-04-25T04:25:00.708Z,14.62
2018-04-25T04:27:28.428Z,14.65
2018-04-25T04:29:55.944Z,14.46
2018-04-25T04:32:23.461Z,14.38
2018-04-25T04:34:51.526Z,14.43
2018-04-25T04:37:19.047Z,14.40
2018-04-25T04:39:46.583Z,14.69
2018-04-25T04:42:14.144Z,14.90
2018-04-25T04:44:41.669Z,14.82
2018-04-25T04:47:09.188Z,15.06
2018-04-25T04:49:36.891Z,15.34
2018-04-25T04:52:04.416Z,15.48
2018-04-25T04:54:31.947Z,15.46
2018-04-25T04:56:59.661Z,15.78
2018-04-25T04:59:27.173Z,16.03
2018-04-25T05:01:55.310Z,16.16
2018-04-25T05:04:22.865Z,16.16
2018-04-25T05:06:50.388Z,16.24
2018-04-25T05:09:17.921Z,16.33
2018-04-25T05:11:45.837Z,15.81
2018-04-25T05:14:13.365Z,16.03
2018-04-25T05:16:40.929Z,16.05
2018-04-25T05:19:08.634Z,16.10
2018-04-25T05:21:36.143Z,16.47
2018-04-25T05:24:03.666Z,16.42
2018-04-25T05:26:31.224Z,16.42
2018-04-25T05:28:58.740Z,16.52
2018-04-25T05:31:26.285Z,16.54
2018-04-25T05:33:54.012Z,16.54
2018-04-25T05:36:21.543Z,16.67
2018-04-25T05:38:49.070Z,16.66
2018-04-25T05:41:16.871Z,16.65
2018-04-25T05:43:44.390Z,16.50
2018-04-25T05:46:11.991Z,16.84
2018-04-25T05:48:39.573Z,16.76
2018-04-25T05:51:07.092Z,16.77
2018-04-25T05:53:35.386Z,16.75
2018-04-25T05:56:03.244Z,16.92
2018-04-25T05:58:30.760Z,17.14
2018-04-25T06:00:58.281Z,17.22
2018-04-25T06:03:25.874Z,17.46
2018-04-25T06:05:53.887Z,17.72
2018-04-25T06:08:22.271Z,17.80
2018-04-25T06:10:50.022Z,17.95
2018-04-25T06:13:17.546Z,18.30
2018-04-25T06:15:45.061Z,18.70
2018-04-25T06:18:13.973Z,18.91
2018-04-25T06:20:41.493Z,19.01
2018-04-25T06:23:10.685Z,18.99
2018-04-25T06:25:39.274Z,19.35
2018-04-25T06:28:07.298Z,19.22
2018-04-25T06:30:36.012Z,19.98
2018-04-25T06:33:03.814Z,20.33
2018-04-25T06:35:33.216Z,20.20
2018-04-25T06:38:00.877Z,20.21
2018-04-25T06:40:28.712Z,20.00
2018-04-25T06:42:57.531Z,20.44
2018-04-25T06:45:25.103Z,20.86
2018-04-25T06:47:52.961Z,20.53
2018-04-25T06:50:20.619Z,20.95
2018-04-25T06:52:48.239Z,21.59
2018-04-25T06:55:16.565Z,22.01
2018-04-25T06:57:44.220Z,22.59
2018-04-25T07:00:11.736Z,22.51
2018-04-25T07:02:39.409Z,23.23
2018-04-25T07:05:06.942Z,23.27
2018-04-25T07:07:34.484Z,23.19
2018-04-25T07:10:04.653Z,22.56
2018-04-25T07:12:32.700Z,22.96
2018-04-25T07:15:00.258Z,22.99
2018-04-25T07:17:28.105Z,23.25
2018-04-25T07:19:56.480Z,23.74
2018-04-25T07:22:24.083Z,23.84
2018-04-25T07:24:51.937Z,24.13
2018-04-25T07:27:19.850Z,23.72
2018-04-25T07:29:47.439Z,23.62
2018-04-25T07:32:15.374Z,23.41
2018-04-25T07:34:42.934Z,23.69
2018-04-25T07:37:17.084Z,23.97
2018-04-25T07:39:44.708Z,24.26
2018-04-25T07:42:12.237Z,24.90
2018-04-25T07:44:39.918Z,25.42
2018-04-25T07:47:07.429Z,25.92
2018-04-25T07:49:35.867Z,26.32
2018-04-25T07:52:03.509Z,26.89
2018-04-25T07:54:31.025Z,27.42
2018-04-25T07:56:58.547Z,27.44
2018-04-25T07:59:26.397Z,27.25
2018-04-25T08:01:53.915Z,26.44
2018-04-25T08:04:21.429Z,25.71
2018-04-25T08:06:49.172Z,25.85
2018-04-25T08:09:16.685Z,25.68
2018-04-25T08:11:44.201Z,25.98
2018-04-25T08:14:23.726Z,25.87
2018-04-25T08:17:02.896Z,25.90
2018-04-25T08:22:38.752Z,26.52
2018-04-25T08:25:06.500Z,24.87
2018-04-25T08:27:34.025Z,23.70
2018-04-25T08:30:01.545Z,23.97
2018-04-25T08:32:29.107Z,24.07
2018-04-25T08:34:56.636Z,25.46
2018-04-25T08:37:24.166Z,25.56
2018-04-25T08:39:51.739Z,25.63
2018-04-25T08:42:19.250Z,25.72
2018-04-25T08:44:48.002Z,25.70
2018-04-25T08:47:17.317Z,25.88
2018-04-25T08:49:44.829Z,26.40
2018-04-25T08:52:12.846Z,27.05
2018-04-25T08:54:40.691Z,26.81
2018-04-25T08:57:08.205Z,27.30
2018-04-25T08:59:35.726Z,26.74
2018-04-25T09:02:03.697Z,27.06
2018-04-25T09:04:31.214Z,28.04
2018-04-25T09:06:58.732Z,27.91
2018-04-25T09:09:26.291Z,27.87
2018-04-25T09:11:53.821Z,26.87
2018-04-25T09:14:21.331Z,27.60
2018-04-25T09:16:49.028Z,27.75
2018-04-25T09:19:16.542Z,26.99
2018-04-25T09:21:44.058Z,27.59
2018-04-25T09:24:12.447Z,27.14
2018-04-25T09:26:40.416Z,28.45
2018-04-25T09:29:07.937Z,28.77
2018-04-25T09:31:35.485Z,29.08
2018-04-25T09:34:02.996Z,29.52
2018-04-25T09:36:30.546Z,29.29
2018-04-25T09:38:58.399Z,28.23
2018-04-25T09:41:25.999Z,28.09
2018-04-25T09:43:53.455Z,29.36
2018-04-25T09:46:20.993Z,28.95
2018-04-25T09:48:49.476Z,29.21
2018-04-25T09:51:17.069Z,28.94
2018-04-25T09:53:44.852Z,29.60
2018-04-25T09:56:12.364Z,30.72
2018-04-25T09:58:39.886Z,30.30
2018-04-25T10:01:07.705Z,30.70
2018-04-25T10:03:35.275Z,29.55
2018-04-25T10:06:02.788Z,29.76
2018-04-25T10:08:30.770Z,29.80
2018-04-25T10:10:58.340Z,30.08
2018-04-25T10:13:25.822Z,31.33
2018-04-25T10:15:53.508Z,30.02
2018-04-25T10:18:21.034Z,29.93
2018-04-25T10:20:48.612Z,28.30
2018-04-25T10:23:16.413Z,27.10
2018-04-25T10:25:44.013Z,26.15
2018-04-25T10:28:11.474Z,25.45
2018-04-25T10:30:39.078Z,25.88
2018-04-25T10:33:06.729Z,28.01
2018-04-25T10:35:34.236Z,29.30
2018-04-25T10:38:02.093Z,31.56
2018-04-25T10:40:29.649Z,32.21
2018-04-25T10:42:57.136Z,33.63
2018-04-25T10:45:25.902Z,34.05
2018-04-25T10:47:53.414Z,34.23
2018-04-25T10:50:20.943Z,34.55
2018-04-25T10:52:48.712Z,35.80
2018-04-25T10:55:16.298Z,34.38
2018-04-25T10:57:43.746Z,34.77
2018-04-25T11:00:11.463Z,36.42
2018-04-25T11:02:38.976Z,36.08
2018-04-25T11:05:06.493Z,38.14
2018-04-25T11:07:34.060Z,37.12
2018-04-25T11:10:01.579Z,37.91
2018-04-25T11:12:29.092Z,36.34
2018-04-25T11:14:56.653Z,35.83
2018-04-25T11:17:24.459Z,34.77
2018-04-25T11:19:52.044Z,34.10
2018-04-25T11:22:19.627Z,34.56
2018-04-25T11:24:47.975Z,35.35
2018-04-25T11:27:15.500Z,36.80
2018-04-25T11:29:43.284Z,36.61
2018-04-25T11:32:10.808Z,33.95
2018-04-25T11:34:38.319Z,33.05
2018-04-25T11:37:06.066Z,31.47
2018-04-25T11:39:33.587Z,30.60
2018-04-25T11:42:01.101Z,29.75
2018-04-25T11:44:28.846Z,30.85
2018-04-25T11:46:56.856Z,31.23
2018-04-25T11:49:25.315Z,33.33
2018-04-25T11:51:52.909Z,34.97
2018-04-25T11:54:20.448Z,35.29
2018-04-25T11:56:47.955Z,33.27
2018-04-25T11:59:15.504Z,31.52
2018-04-25T12:01:46.291Z,32.18
2018-04-25T12:04:13.823Z,34.58
2018-04-25T12:06:41.365Z,35.59
2018-04-25T12:09:08.875Z,37.25
2018-04-25T12:11:36.380Z,38.05
2018-04-25T12:14:04.164Z,37.09
2018-04-25T12:16:31.675Z,36.49
2018-04-25T12:18:59.196Z,35.72
2018-04-25T12:21:26.736Z,35.14
2018-04-25T12:23:54.254Z,35.73
2018-04-25T12:26:21.911Z,35.36
2018-04-25T12:28:49.713Z,35.29
2018-04-25T12:31:17.224Z,34.75
2018-04-25T12:33:44.736Z,33.95
2018-04-25T12:36:12.541Z,32.60
2018-04-25T12:38:40.267Z,30.08
2018-04-25T12:41:07.847Z,30.65
2018-04-25T12:43:37.147Z,29.99
2018-04-25T12:46:05.015Z,30.35
2018-04-25T12:48:32.904Z,30.32
2018-04-25T12:51:00.825Z,31.28
2018-04-25T12:53:28.352Z,31.84
2018-04-25T12:55:55.917Z,32.77
2018-04-25T12:58:23.469Z,33.53
2018-04-25T13:00:50.994Z,33.24
2018-04-25T13:03:18.759Z,30.55
2018-04-25T13:05:46.880Z,30.92
2018-04-25T13:08:14.419Z,32.72
2018-04-25T13:10:41.937Z,34.00
2018-04-25T13:13:09.853Z,34.01
2018-04-25T13:15:37.366Z,33.36
2018-04-25T13:18:05.026Z,31.41
2018-04-25T13:20:32.893Z,29.97
2018-04-25T13:23:00.503Z,28.77
2018-04-25T13:25:28.600Z,27.63
2018-04-25T13:27:56.378Z,26.99
2018-04-25T13:30:24.257Z,26.74
2018-04-25T13:32:52.189Z,26.03
2018-04-25T13:35:20.091Z,26.27
2018-04-25T13:37:47.773Z,25.44
2018-04-25T13:40:16.237Z,25.60
2018-04-25T13:42:44.399Z,25.48
2018-04-25T13:45:12.991Z,25.17
2018-04-25T13:47:40.653Z,24.55
2018-04-25T13:50:08.252Z,24.93
2018-04-25T13:52:36.119Z,24.62
2018-04-25T13:55:03.882Z,24.49
2018-04-25T13:57:31.601Z,23.98
2018-04-25T13:59:59.476Z,23.93
2018-04-25T14:02:27.137Z,23.57
2018-04-25T14:04:55.296Z,23.32
2018-04-25T14:07:22.847Z,22.82
2018-04-25T14:09:50.642Z,23.16
2018-04-25T14:12:18.529Z,23.25
2018-04-25T14:14:46.366Z,22.68
2018-04-25T14:17:13.930Z,22.67
2018-04-25T14:19:41.504Z,22.93
2018-04-25T14:22:09.540Z,22.98
2018-04-25T14:24:37.410Z,22.79
2018-04-25T14:27:05.473Z,22.64
2018-04-25T14:29:33.773Z,22.38
2018-04-25T14:32:01.742Z,22.95
2018-04-25T14:34:29.635Z,22.68
2018-04-25T14:36:57.170Z,23.23
2018-04-25T14:39:25.825Z,22.93
2018-04-25T14:41:53.588Z,23.10
2018-04-25T14:44:21.791Z,23.14
2018-04-25T14:46:49.963Z,23.30
2018-04-25T14:49:18.126Z,23.43
2018-04-25T14:51:45.799Z,23.40
2018-04-25T14:54:13.540Z,23.71
2018-04-25T14:56:41.317Z,23.91
2018-04-25T14:59:08.885Z,23.51
2018-04-25T15:01:36.421Z,23.02
2018-04-25T15:04:04.418Z,23.06
2018-04-25T15:06:32.181Z,23.37
2018-04-25T15:08:59.782Z,23.16
2018-04-25T15:11:27.710Z,23.33
2018-04-25T15:13:55.575Z,23.08
2018-04-25T15:16:23.647Z,23.05
2018-04-25T15:18:51.691Z,23.15
2018-04-25T15:21:19.460Z,22.91
2018-04-25T15:23:47.465Z,22.91
2018-04-25T15:26:15.624Z,23.22
2018-04-25T15:28:43.492Z,22.89
2018-04-25T15:31:11.327Z,22.94
2018-04-25T15:33:39.534Z,22.70
2018-04-25T15:36:07.914Z,22.86
2018-04-25T15:38:36.190Z,23.96
2018-04-25T15:41:06.099Z,25.07
2018-04-25T15:43:33.967Z,25.78
2018-04-25T15:46:01.832Z,26.76
2018-04-25T15:48:30.110Z,27.11
2018-04-25T15:50:57.978Z,27.49
2018-04-25T15:53:25.964Z,27.63
2018-04-25T15:55:54.841Z,27.62
2018-04-25T15:58:22.706Z,27.15
2018-04-25T16:00:50.569Z,26.42
2018-04-25T16:03:18.947Z,25.92
2018-04-25T16:05:47.941Z,24.96
2018-04-25T16:08:16.091Z,24.47
2018-04-25T16:10:43.957Z,24.19
2018-04-25T16:13:11.701Z,23.72
2018-04-25T16:15:39.518Z,23.39
2018-04-25T16:18:07.788Z,23.08
2018-04-25T16:20:36.268Z,22.86
2018-04-25T16:23:04.845Z,22.66
2018-04-25T16:25:33.638Z,22.55
2018-04-25T16:28:01.301Z,22.58
2018-04-25T16:30:29.167Z,22.77
2018-04-25T16:32:57.036Z,22.86
2018-04-25T16:35:24.798Z,22.67
2018-04-25T16:37:52.439Z,22.28
2018-04-25T16:40:20.215Z,21.88
2018-04-25T16:42:47.847Z,21.74
2018-04-25T16:45:15.444Z,21.83
2018-04-25T16:47:43.413Z,21.63
2018-04-25T16:50:10.939Z,21.38
2018-04-25T16:52:38.738Z,21.07
2018-04-25T16:55:06.602Z,21.08
2018-04-25T16:57:34.152Z,20.97
2018-04-25T17:00:01.677Z,20.81
2018-04-25T17:02:29.227Z,20.58
2018-04-25T17:04:56.919Z,20.36
2018-04-25T17:07:24.539Z,20.33
2018-04-25T17:09:52.371Z,20.52
2018-04-25T17:12:19.968Z,20.29
2018-04-25T17:14:47.563Z,20.46
2018-04-25T17:17:15.780Z,20.63
2018-04-25T17:19:43.515Z,20.53
2018-04-25T17:22:11.081Z,20.34
2018-04-25T17:24:38.850Z,20.22
2018-04-25T17:27:06.516Z,20.23
2018-04-25T17:29:34.382Z,20.20
2018-04-25T17:32:02.444Z,20.15
2018-04-25T17:34:30.215Z,20.02
2018-04-25T17:36:57.830Z,19.81
2018-04-25T17:39:27.027Z,20.10
2018-04-25T17:41:54.745Z,19.70
2018-04-25T17:44:22.491Z,19.91
2018-04-25T17:46:50.471Z,19.97
2018-04-25T17:49:18.103Z,19.92
2018-04-25T17:51:45.896Z,19.84
2018-04-25T17:54:14.253Z,19.76
2018-04-25T17:56:42.096Z,19.68
2018-04-25T17:59:10.521Z,19.66
2018-04-25T18:01:39.052Z,19.77
2018-04-25T18:04:07.385Z,19.62
2018-04-25T18:06:35.249Z,19.31
2018-04-25T18:09:03.381Z,19.23
2018-04-25T18:11:31.176Z,19.21
2018-04-25T18:13:59.053Z,19.07
2018-04-25T18:16:26.923Z,18.86
2018-04-25T18:18:55.601Z,18.73
2018-04-25T18:21:25.054Z,18.73
2018-04-25T18:23:53.182Z,18.76
2018-04-25T18:26:20.901Z,18.71
2018-04-25T18:28:48.590Z,18.49
2018-04-25T18:31:16.784Z,18.34
2018-04-25T18:33:44.546Z,18.36
2018-04-25T18:36:12.412Z,18.35
2018-04-25T18:38:40.278Z,18.23
2018-04-25T18:41:08.146Z,18.31
2018-04-25T18:43:36.112Z,18.27
2018-04-25T18:46:04.081Z,18.30
2018-04-25T18:48:31.947Z,18.17
2018-04-25T18:50:59.773Z,18.25
2018-04-25T18:53:27.990Z,18.19
2018-04-25T18:55:55.762Z,18.12
2018-04-25T18:58:24.644Z,18.07
2018-04-25T19:00:52.821Z,18.07
2018-04-25T19:03:20.888Z,17.99
2018-04-25T19:05:48.757Z,17.99
2018-04-25T19:08:17.021Z,18.00
2018-04-25T19:10:45.104Z,18.09
2018-04-25T19:13:13.180Z,18.14
2018-04-25T19:15:41.319Z,18.22
2018-04-25T19:18:09.830Z,18.22
2018-04-25T19:20:37.694Z,18.19
2018-04-25T19:23:06.072Z,18.34
2018-04-25T19:25:34.359Z,18.20
2018-04-25T19:28:03.034Z,18.22
2018-04-25T19:30:30.964Z,18.26
2018-04-25T19:32:58.888Z,18.12
2018-04-25T19:35:26.941Z,18.15
2018-04-25T19:37:55.115Z,18.29
2018-04-25T19:40:24.035Z,18.31
2018-04-25T19:42:51.898Z,18.42
2018-04-25T19:45:20.660Z,18.35
2018-04-25T19:47:48.630Z,18.43
2018-04-25T19:50:16.598Z,18.49
2018-04-25T19:52:44.773Z,18.52
2018-04-25T19:55:13.254Z,18.52
2018-04-25T19:57:41.088Z,18.30
2018-04-25T20:00:09.250Z,18.33
2018-04-25T20:02:37.161Z,18.49
2018-04-25T20:05:05.137Z,18.14
2018-04-25T20:07:33.272Z,17.98
2018-04-25T20:10:01.053Z,18.33
2018-04-25T20:12:28.934Z,18.12
2018-04-25T20:14:57.723Z,18.18
2018-04-25T20:17:25.486Z,18.04
2018-04-25T20:19:53.025Z,18.20
2018-04-25T20:22:20.910Z,17.90
2018-04-25T20:24:48.566Z,18.12
2018-04-25T20:27:16.441Z,17.78
2018-04-25T20:29:44.462Z,17.97
2018-04-25T20:32:12.283Z,17.73
2018-04-25T20:34:40.164Z,17.78
2018-04-25T20:37:08.419Z,17.75
2018-04-25T20:39:36.174Z,17.76
2018-04-25T20:42:03.847Z,17.76
2018-04-25T20:44:32.020Z,17.82
2018-04-25T20:46:59.886Z,17.70
2018-04-25T20:49:27.715Z,17.93
2018-04-25T20:51:55.884Z,17.97
2018-04-25T20:54:23.595Z,17.83
2018-04-25T20:56:51.380Z,17.93
2018-04-25T20:59:19.324Z,17.84
2018-04-25T21:01:47.496Z,17.86
2018-04-25T21:04:15.258Z,17.75
2018-04-25T21:06:43.653Z,17.49
2018-04-25T21:09:11.422Z,17.57
2018-04-25T21:11:39.019Z,17.43
2018-04-25T21:14:07.310Z,17.57
2018-04-25T21:16:34.979Z,17.52
2018-04-25T21:19:02.642Z,17.35
2018-04-25T21:21:30.431Z,17.32
2018-04-25T21:23:58.134Z,17.46
2018-04-25T21:26:25.855Z,17.34
2018-04-25T21:28:54.332Z,17.30
2018-04-25T21:31:21.885Z,17.20
2018-04-25T21:33:49.657Z,17.14
2018-04-25T21:36:17.604Z,17.24
2018-04-25T21:38:45.257Z,17.18
2018-04-25T21:41:12.925Z,17.19
2018-04-25T21:43:40.694Z,17.03
2018-04-25T21:46:08.246Z,17.07
2018-04-25T21:48:36.228Z,17.03
2018-04-25T21:51:03.982Z,16.94
2018-04-25T21:53:31.498Z,17.04
2018-04-25T21:55:59.022Z,17.12
2018-04-25T21:58:26.597Z,17.06
2018-04-25T22:00:54.135Z,16.81
2018-04-25T22:03:22.652Z,16.82
2018-04-25T22:05:50.453Z,16.55
2018-04-25T22:08:17.961Z,16.27
2018-04-25T22:10:45.531Z,16.13
2018-04-25T22:13:13.173Z,16.04
2018-04-25T22:15:40.733Z,16.03
2018-04-25T22:18:08.245Z,16.04
2018-04-25T22:20:35.788Z,16.02
2018-04-25T22:23:03.319Z,15.95
2018-04-25T22:25:30.828Z,15.88
2018-04-25T22:27:58.391Z,15.83
2018-04-25T22:30:25.899Z,15.77
2018-04-25T22:32:53.752Z,15.62
2018-04-25T22:35:21.491Z,15.28
2018-04-25T22:37:49.007Z,15.41
2018-04-25T22:40:16.566Z,15.10
2018-04-25T22:42:44.160Z,15.12
2018-04-25T22:45:11.705Z,15.06
2018-04-25T22:47:39.225Z,15.07
2018-04-25T22:50:07.190Z,15.19
2018-04-25T22:52:34.716Z,15.11
2018-04-25T22:55:02.240Z,15.07
2018-04-25T22:57:29.800Z,14.69
2018-04-25T22:59:57.320Z,14.73
2018-04-25T23:02:24.988Z,14.50
2018-04-25T23:04:52.716Z,14.59
2018-04-25T23:07:20.247Z,14.31
2018-04-25T23:09:47.772Z,14.47
2018-04-25T23:12:15.483Z,14.39
2018-04-25T23:14:43.017Z,14.03
2018-04-25T23:17:10.532Z,14.05
2018-04-25T23:19:38.499Z,14.30
2018-04-25T23:22:06.029Z,14.37
2018-04-25T23:24:33.544Z,14.24
2018-04-25T23:27:01.112Z,14.51
2018-04-25T23:29:28.630Z,14.41
2018-04-25T23:31:56.277Z,14.35
2018-04-25T23:34:24.137Z,14.03
2018-04-25T23:36:51.660Z,13.88
2018-04-25T23:39:19.203Z,13.58
2018-04-25T23:41:46.832Z,13.22
2018-04-25T23:44:14.356Z,13.41
2018-04-25T23:46:41.871Z,13.49
2018-04-25T23:49:09.418Z,13.41
2018-04-25T23:51:36.937Z,13.36
2018-04-25T23:54:04.516Z,13.44
2018-04-25T23:56:32.431Z,13.33
2018-04-25T23:58:59.953Z,13.56
